createdAt,value
2022-09-11T00:01:41.044Z,37.17
2022-09-11T00:04:10.919Z,36.78
2022-09-11T00:06:39.994Z,40.47
2022-09-11T00:09:09.000Z,42.17
2022-09-11T00:11:41.449Z,42.65
2022-09-11T00:14:13.999Z,42.10
2022-09-11T00:16:45.341Z,41.60
2022-09-11T00:19:15.897Z,40.38
2022-09-11T00:21:44.192Z,39.65
2022-09-11T00:24:13.021Z,37.60
2022-09-11T00:26:42.551Z,38.65
2022-09-11T00:29:12.329Z,45.88
2022-09-11T00:31:41.746Z,41.00
2022-09-11T00:34:10.134Z,43.38
2022-09-11T00:36:41.417Z,47.05
2022-09-11T00:39:10.887Z,42.80
2022-09-11T00:41:41.051Z,42.38
2022-09-11T00:44:25.368Z,42.30
2022-09-11T00:46:57.514Z,46.08
2022-09-11T00:49:31.407Z,43.47
2022-09-11T00:52:04.137Z,54.22
2022-09-11T00:54:36.790Z,59.30
2022-09-11T00:57:09.549Z,78.15
2022-09-11T00:59:41.305Z,67.38
2022-09-11T01:02:14.137Z,69.72
2022-09-11T01:04:42.682Z,60.25
2022-09-11T01:07:13.665Z,63.03
2022-09-11T01:09:42.940Z,68.20
2022-09-11T01:12:18.516Z,65.38
2022-09-11T01:14:53.633Z,61.80
2022-09-11T01:17:31.711Z,56.67
2022-09-11T01:20:22.365Z,64.38
2022-09-11T01:23:20.540Z,61.25
2022-09-11T01:26:07.227Z,62.28
2022-09-11T01:28:41.158Z,71.93
2022-09-11T01:31:12.437Z,68.68
2022-09-11T01:33:45.795Z,70.00
2022-09-11T01:36:20.618Z,73.45
2022-09-11T01:38:54.246Z,64.13
2022-09-11T01:41:28.107Z,64.95
2022-09-11T01:44:03.774Z,60.65
2022-09-11T01:46:35.700Z,62.28
2022-09-11T01:49:07.950Z,64.30
2022-09-11T01:51:37.703Z,59.38
2022-09-11T01:54:10.519Z,62.83
2022-09-11T01:56:44.832Z,54.25
2022-09-11T01:59:18.546Z,54.70
2022-09-11T02:01:51.380Z,56.92
2022-09-11T02:04:23.156Z,55.58
2022-09-11T02:06:59.386Z,58.38
2022-09-11T02:09:33.461Z,53.60
2022-09-11T02:12:07.630Z,61.65
2022-09-11T02:14:41.324Z,64.78
2022-09-11T02:17:18.646Z,65.60
2022-09-11T02:19:47.145Z,70.00
2022-09-11T02:22:15.383Z,61.13
2022-09-11T02:24:43.884Z,60.55
2022-09-11T02:27:17.986Z,53.90
2022-09-11T02:29:47.829Z,53.45
2022-09-11T02:32:16.121Z,80.10
2022-09-11T02:34:45.527Z,76.32
2022-09-11T02:37:23.590Z,55.15
2022-09-11T02:40:13.335Z,58.03
2022-09-11T02:42:55.566Z,56.60
2022-09-11T02:45:37.070Z,64.13
2022-09-11T02:48:24.451Z,63.65
2022-09-11T02:51:00.076Z,69.25
2022-09-11T02:53:36.489Z,65.55
2022-09-11T02:56:10.883Z,59.15
2022-09-11T02:58:44.834Z,63.10
2022-09-11T03:01:14.839Z,53.42
2022-09-11T03:03:46.137Z,48.35
2022-09-11T03:06:18.935Z,50.35
2022-09-11T03:08:47.081Z,56.25
2022-09-11T03:11:17.818Z,68.22
2022-09-11T03:13:46.558Z,52.20
2022-09-11T03:16:16.191Z,57.03
2022-09-11T03:18:44.493Z,52.38
2022-09-11T03:21:12.656Z,51.05
2022-09-11T03:23:41.299Z,52.80
2022-09-11T03:26:09.598Z,53.00
2022-09-11T03:28:37.850Z,48.78
2022-09-11T03:31:06.311Z,51.47
2022-09-11T03:33:36.017Z,54.45
2022-09-11T03:36:04.762Z,57.88
2022-09-11T03:38:33.116Z,58.72
2022-09-11T03:41:02.873Z,76.30
2022-09-11T03:43:31.301Z,64.40
2022-09-11T03:46:00.597Z,60.08
2022-09-11T03:48:29.292Z,46.58
2022-09-11T03:50:59.560Z,48.15
2022-09-11T03:53:28.174Z,50.85
2022-09-11T03:55:56.545Z,59.95
2022-09-11T03:58:24.738Z,67.30
2022-09-11T04:00:52.971Z,67.22
2022-09-11T04:03:21.215Z,69.63
2022-09-11T04:06:00.820Z,53.22
2022-09-11T04:08:33.678Z,53.30
2022-09-11T04:11:03.569Z,87.95
2022-09-11T04:13:33.369Z,60.20
2022-09-11T04:16:03.146Z,64.53
2022-09-11T04:18:32.466Z,86.65
2022-09-11T04:21:05.136Z,77.03
2022-09-11T04:23:34.103Z,60.58
2022-09-11T04:26:02.702Z,54.78
2022-09-11T04:28:32.402Z,56.22
2022-09-11T04:31:04.192Z,61.05
2022-09-11T04:33:32.421Z,49.35
2022-09-11T04:36:06.167Z,58.30
2022-09-11T04:38:34.922Z,54.97
2022-09-11T04:41:03.658Z,58.35
2022-09-11T04:43:32.713Z,75.45
2022-09-11T04:46:04.808Z,57.40
2022-09-11T04:48:33.289Z,70.75
2022-09-11T04:51:05.961Z,84.97
2022-09-11T04:53:34.874Z,56.58
2022-09-11T04:56:04.673Z,60.53
2022-09-11T04:58:33.252Z,68.75
2022-09-11T05:01:01.509Z,63.13
2022-09-11T05:03:29.966Z,55.25
2022-09-11T05:05:58.591Z,63.33
2022-09-11T05:08:28.106Z,59.58
2022-09-11T05:10:57.684Z,61.58
2022-09-11T05:13:26.012Z,52.78
2022-09-11T05:15:54.343Z,59.90
2022-09-11T05:18:22.678Z,61.20
2022-09-11T05:21:00.541Z,60.50
2022-09-11T05:23:30.541Z,87.15
2022-09-11T05:25:59.341Z,57.38
2022-09-11T05:28:28.268Z,56.67
2022-09-11T05:30:56.971Z,53.90
2022-09-11T05:33:26.376Z,57.63
2022-09-11T05:35:56.178Z,54.92
2022-09-11T05:38:24.379Z,60.42
2022-09-11T05:40:54.141Z,56.47
2022-09-11T05:43:22.439Z,59.70
2022-09-11T05:45:56.260Z,66.22
2022-09-11T05:48:24.858Z,77.03
2022-09-11T05:50:57.133Z,60.70
2022-09-11T05:53:27.807Z,59.75
2022-09-11T05:55:57.516Z,58.50
2022-09-11T05:58:26.349Z,61.08
2022-09-11T06:01:03.267Z,70.50
2022-09-11T06:03:33.180Z,69.82
2022-09-11T06:06:02.591Z,71.82
2022-09-11T06:08:31.084Z,65.55
2022-09-11T06:11:00.718Z,74.30
2022-09-11T06:13:31.806Z,72.15
2022-09-11T06:16:00.073Z,71.93
2022-09-11T06:18:28.678Z,76.07
2022-09-11T06:20:57.808Z,72.45
2022-09-11T06:23:26.674Z,72.82
2022-09-11T06:25:55.213Z,71.40
2022-09-11T06:28:25.242Z,76.00
2022-09-11T06:30:54.099Z,69.53
2022-09-11T06:33:23.088Z,74.32
2022-09-11T06:35:59.818Z,60.53
2022-09-11T06:38:28.833Z,60.50
2022-09-11T06:40:57.341Z,68.43
2022-09-11T06:43:26.894Z,71.13
2022-09-11T06:45:55.113Z,70.47
2022-09-11T06:48:23.352Z,70.05
2022-09-11T06:50:51.491Z,64.45
2022-09-11T06:53:20.303Z,64.65
2022-09-11T06:55:48.490Z,66.20
2022-09-11T06:58:16.822Z,69.00
2022-09-11T07:00:46.432Z,68.40
2022-09-11T07:03:15.164Z,69.00
2022-09-11T07:05:47.813Z,69.75
2022-09-11T07:08:15.982Z,67.43
2022-09-11T07:10:44.482Z,68.90
2022-09-11T07:13:12.674Z,70.72
2022-09-11T07:15:40.952Z,69.60
2022-09-11T07:18:11.472Z,70.72
2022-09-11T07:20:41.465Z,70.38
2022-09-11T07:23:09.645Z,68.88
2022-09-11T07:25:40.534Z,64.75
2022-09-11T07:28:08.939Z,63.08
2022-09-11T07:30:37.212Z,56.40
2022-09-11T07:33:05.529Z,54.45
2022-09-11T07:35:38.153Z,54.72
2022-09-11T07:38:07.591Z,59.03
2022-09-11T07:40:35.805Z,55.40
2022-09-11T07:43:04.239Z,52.15
2022-09-11T07:45:32.431Z,49.38
2022-09-11T07:48:02.633Z,45.05
2022-09-11T07:50:30.831Z,40.90
2022-09-11T07:53:00.434Z,39.10
2022-09-11T07:55:28.639Z,37.53
2022-09-11T07:57:56.845Z,32.80
2022-09-11T08:00:25.134Z,31.60
2022-09-11T08:02:53.732Z,30.45
2022-09-11T08:05:21.991Z,27.50
2022-09-11T08:07:50.218Z,25.80
2022-09-11T08:10:28.085Z,25.73
2022-09-11T08:12:59.614Z,22.52
2022-09-11T08:15:28.133Z,21.70
2022-09-11T08:17:56.345Z,19.40
2022-09-11T08:20:24.507Z,18.52
2022-09-11T08:22:52.745Z,17.60
2022-09-11T08:25:24.005Z,17.60
2022-09-11T08:27:53.168Z,14.85
2022-09-11T08:30:21.870Z,15.30
2022-09-11T08:32:50.080Z,11.32
2022-09-11T08:35:19.238Z,9.85
2022-09-11T08:37:49.677Z,8.93
2022-09-11T08:40:23.056Z,9.35
2022-09-11T08:42:53.130Z,7.60
2022-09-11T08:45:24.951Z,9.27
2022-09-11T08:47:55.482Z,8.88
2022-09-11T08:50:27.153Z,6.35
2022-09-11T08:52:56.562Z,8.25
2022-09-11T08:55:34.838Z,8.07
2022-09-11T08:58:12.470Z,6.65
2022-09-11T09:00:45.572Z,6.63
2022-09-11T09:03:50.455Z,8.23
2022-09-11T09:06:30.718Z,6.70
2022-09-11T09:09:09.261Z,8.45
2022-09-11T09:11:50.186Z,6.20
2022-09-11T09:14:30.292Z,5.05
2022-09-11T09:17:03.183Z,3.20
2022-09-11T09:19:36.391Z,3.67
2022-09-11T09:22:13.942Z,4.22
2022-09-11T09:24:47.422Z,6.22
2022-09-11T09:27:22.574Z,7.13
2022-09-11T09:29:55.792Z,6.90
2022-09-11T09:32:31.214Z,8.65
2022-09-11T09:35:03.924Z,7.68
2022-09-11T09:37:32.186Z,7.78
2022-09-11T09:40:01.609Z,7.65
2022-09-11T09:42:48.921Z,8.48
2022-09-11T09:45:33.249Z,8.20
2022-09-11T09:48:01.997Z,8.32
2022-09-11T09:50:33.008Z,8.32
2022-09-11T09:53:10.740Z,8.63
2022-09-11T09:55:41.271Z,8.32
2022-09-11T09:58:11.375Z,9.13
2022-09-11T10:00:41.165Z,9.10
2022-09-11T10:03:23.333Z,8.48
2022-09-11T10:05:53.891Z,7.35
2022-09-11T10:08:33.858Z,6.65
2022-09-11T10:11:04.031Z,5.53
2022-09-11T10:13:35.624Z,6.00
2022-09-11T10:16:05.412Z,5.68
2022-09-11T10:18:44.809Z,4.28
2022-09-11T10:21:29.463Z,4.32
2022-09-11T10:23:59.684Z,3.80
2022-09-11T10:26:34.206Z,4.30
2022-09-11T10:29:16.753Z,3.35
2022-09-11T10:31:52.089Z,4.20
2022-09-11T10:34:22.417Z,4.03
2022-09-11T10:36:55.174Z,2.88
2022-09-11T10:39:26.374Z,3.03
2022-09-11T10:41:59.001Z,3.28
2022-09-11T10:44:30.805Z,3.58
2022-09-11T10:47:06.429Z,2.95
2022-09-11T10:49:35.038Z,2.85
2022-09-11T10:52:06.003Z,2.50
2022-09-11T10:55:02.216Z,1.75
2022-09-11T10:57:35.635Z,3.28
2022-09-11T11:00:13.190Z,3.20
2022-09-11T11:02:44.085Z,2.55
2022-09-11T11:05:21.144Z,2.70
2022-09-11T11:08:07.505Z,2.13
2022-09-11T11:10:51.312Z,2.25
2022-09-11T11:13:41.341Z,2.42
2022-09-11T11:16:19.173Z,2.40
2022-09-11T11:19:04.603Z,2.70
2022-09-11T11:21:49.086Z,2.05
2022-09-11T11:24:32.374Z,1.55
2022-09-11T11:27:21.673Z,1.23
2022-09-11T11:30:11.150Z,1.52
2022-09-11T11:32:58.458Z,1.15
2022-09-11T11:35:33.285Z,1.10
2022-09-11T11:38:05.734Z,1.70
2022-09-11T11:40:38.094Z,3.47
2022-09-11T11:43:08.972Z,3.38
2022-09-11T11:45:43.264Z,5.30
2022-09-11T11:48:18.388Z,5.40
2022-09-11T11:50:50.575Z,5.80
2022-09-11T11:53:24.471Z,6.13
2022-09-11T11:56:01.688Z,6.18
2022-09-11T11:58:42.093Z,6.55
2022-09-11T12:01:17.026Z,7.35
2022-09-11T12:03:52.174Z,8.25
2022-09-11T12:06:20.407Z,6.40
2022-09-11T12:08:49.851Z,7.00
2022-09-11T12:11:26.157Z,6.15
2022-09-11T12:13:56.086Z,5.72
2022-09-11T12:16:31.615Z,4.80
2022-09-11T12:19:14.269Z,4.25
2022-09-11T12:22:14.463Z,4.05
2022-09-11T12:24:58.792Z,3.85
2022-09-11T12:28:09.528Z,3.15
2022-09-11T12:31:02.689Z,3.40
2022-09-11T12:33:54.652Z,2.25
2022-09-11T12:36:36.293Z,1.70
2022-09-11T12:39:17.152Z,2.13
2022-09-11T12:41:45.929Z,1.40
2022-09-11T12:44:32.634Z,1.17
2022-09-11T12:47:13.744Z,1.10
2022-09-11T12:49:54.763Z,1.05
2022-09-11T12:52:34.033Z,0.73
2022-09-11T12:55:07.851Z,1.10
2022-09-11T12:57:40.866Z,1.00
2022-09-11T13:00:22.518Z,0.80
2022-09-11T13:02:56.943Z,1.23
2022-09-11T13:05:28.387Z,1.00
2022-09-11T13:08:00.869Z,1.10
2022-09-11T13:10:35.978Z,1.33
2022-09-11T13:13:06.319Z,1.42
2022-09-11T13:15:37.239Z,1.55
2022-09-11T13:18:29.910Z,1.23
2022-09-11T13:21:00.656Z,1.58
2022-09-11T13:23:30.730Z,1.20
2022-09-11T13:25:59.347Z,1.80
2022-09-11T13:28:31.773Z,1.77
2022-09-11T13:31:04.982Z,1.83
2022-09-11T13:33:34.143Z,1.42
2022-09-11T13:36:06.105Z,1.40
2022-09-11T13:38:39.426Z,1.80
2022-09-11T13:41:13.691Z,2.03
2022-09-11T13:43:45.549Z,2.08
2022-09-11T13:46:23.034Z,1.25
2022-09-11T13:48:53.848Z,1.25
2022-09-11T13:51:25.533Z,1.48
2022-09-11T13:54:03.986Z,1.73
2022-09-11T13:56:45.609Z,1.40
2022-09-11T13:59:43.028Z,1.30
2022-09-11T14:02:50.777Z,0.98
2022-09-11T14:05:22.094Z,1.10
2022-09-11T14:08:00.687Z,0.95
2022-09-11T14:10:33.972Z,0.70
2022-09-11T14:13:12.468Z,0.88
2022-09-11T14:15:43.376Z,1.15
2022-09-11T14:18:31.573Z,0.80
2022-09-11T14:21:02.505Z,0.85
2022-09-11T14:23:31.368Z,1.13
2022-09-11T14:26:10.471Z,0.85
2022-09-11T14:28:44.134Z,1.10
2022-09-11T14:31:15.127Z,0.98
2022-09-11T14:33:43.819Z,0.75
2022-09-11T14:36:19.815Z,1.23
2022-09-11T14:38:48.606Z,1.38
2022-09-11T14:41:18.251Z,0.80
2022-09-11T14:43:49.623Z,0.85
2022-09-11T14:46:18.035Z,0.93
2022-09-11T14:48:46.811Z,0.82
2022-09-11T14:51:15.293Z,0.82
2022-09-11T14:53:43.915Z,0.90
2022-09-11T14:56:12.202Z,1.00
2022-09-11T14:58:41.790Z,1.40
2022-09-11T15:01:13.954Z,1.02
2022-09-11T15:03:42.580Z,1.13
2022-09-11T15:06:17.324Z,1.38
2022-09-11T15:08:45.998Z,1.30
2022-09-11T15:11:14.578Z,1.23
2022-09-11T15:14:11.073Z,0.90
2022-09-11T15:16:33.330Z,0.85
2022-09-11T15:19:01.713Z,0.80
2022-09-11T15:21:34.089Z,1.10
2022-09-11T15:24:06.469Z,1.25
2022-09-11T15:26:35.477Z,1.63
2022-09-11T15:29:11.044Z,1.00
2022-09-11T15:31:40.139Z,1.50
2022-09-11T15:34:08.674Z,2.67
2022-09-11T15:36:38.168Z,2.35
2022-09-11T15:39:07.042Z,3.92
2022-09-11T15:41:35.614Z,2.97
2022-09-11T15:44:10.782Z,1.60
2022-09-11T15:46:39.133Z,2.83
2022-09-11T15:49:07.647Z,3.75
2022-09-11T15:51:35.986Z,4.85
2022-09-11T15:54:04.579Z,3.78
2022-09-11T15:56:57.211Z,4.50
2022-09-11T15:59:38.742Z,4.28
2022-09-11T16:02:07.072Z,4.93
2022-09-11T16:04:35.315Z,6.03
2022-09-11T16:07:03.500Z,4.45
2022-09-11T16:09:33.143Z,3.45
2022-09-11T16:12:02.182Z,2.97
2022-09-11T16:14:33.724Z,2.83
2022-09-11T16:17:03.072Z,1.80
2022-09-11T16:19:32.374Z,1.95
2022-09-11T16:22:02.318Z,2.50
2022-09-11T16:24:32.985Z,2.10
2022-09-11T16:27:01.685Z,1.85
2022-09-11T16:29:59.074Z,1.48
2022-09-11T16:32:28.434Z,2.10
2022-09-11T16:34:57.098Z,2.55
2022-09-11T16:37:25.946Z,2.15
2022-09-11T16:39:54.302Z,1.77
2022-09-11T16:42:22.646Z,1.38
2022-09-11T16:44:53.544Z,1.75
2022-09-11T16:47:21.865Z,1.20
2022-09-11T16:50:06.585Z,1.65
2022-09-11T16:52:35.853Z,1.30
2022-09-11T16:55:04.584Z,1.10
2022-09-11T16:57:33.372Z,1.20
2022-09-11T17:00:03.334Z,1.30
2022-09-11T17:02:31.574Z,1.88
2022-09-11T17:04:59.769Z,1.48
2022-09-11T17:07:28.229Z,1.60
2022-09-11T17:09:56.378Z,2.03
2022-09-11T17:12:24.801Z,2.30
2022-09-11T17:14:53.016Z,3.10
2022-09-11T17:17:23.220Z,2.88
2022-09-11T17:19:51.898Z,2.40
2022-09-11T17:22:20.119Z,2.97
2022-09-11T17:24:48.356Z,3.17
2022-09-11T17:27:16.590Z,2.97
2022-09-11T17:29:45.040Z,3.05
2022-09-11T17:32:27.705Z,3.38
2022-09-11T17:34:58.472Z,3.65
2022-09-11T17:37:27.463Z,3.65
2022-09-11T17:39:56.287Z,4.35
2022-09-11T17:42:24.534Z,3.95
2022-09-11T17:44:52.761Z,4.15
2022-09-11T17:47:20.996Z,4.60
2022-09-11T17:49:50.211Z,4.68
2022-09-11T17:52:20.391Z,4.60
2022-09-11T17:54:49.015Z,4.75
2022-09-11T17:57:17.318Z,5.75
2022-09-11T17:59:45.516Z,5.38
2022-09-11T18:02:15.018Z,5.38
2022-09-11T18:04:44.277Z,6.05
2022-09-11T18:07:12.778Z,4.95
2022-09-11T18:09:42.602Z,5.90
2022-09-11T18:12:11.331Z,6.13
2022-09-11T18:14:40.584Z,6.43
2022-09-11T18:17:09.138Z,6.07
2022-09-11T18:19:38.786Z,5.70
2022-09-11T18:22:10.318Z,6.10
2022-09-11T18:24:39.877Z,6.28
2022-09-11T18:27:11.646Z,6.43
2022-09-11T18:29:40.683Z,7.10
2022-09-11T18:32:10.338Z,8.45
2022-09-11T18:34:39.275Z,7.30
2022-09-11T18:37:08.351Z,6.97
2022-09-11T18:39:38.322Z,7.57
2022-09-11T18:42:07.659Z,7.00
2022-09-11T18:44:37.782Z,7.78
2022-09-11T18:47:06.883Z,7.68
2022-09-11T18:49:35.082Z,7.78
2022-09-11T18:52:03.789Z,8.57
2022-09-11T18:54:33.623Z,9.43
2022-09-11T18:57:03.436Z,9.75
2022-09-11T18:59:31.774Z,8.98
2022-09-11T19:02:01.543Z,11.13
2022-09-11T19:04:29.990Z,10.88
2022-09-11T19:07:00.205Z,11.45
2022-09-11T19:09:29.327Z,12.90
2022-09-11T19:12:00.333Z,12.10
2022-09-11T19:14:28.626Z,14.35
2022-09-11T19:16:56.922Z,13.90
2022-09-11T19:19:27.306Z,14.88
2022-09-11T19:21:55.628Z,14.50
2022-09-11T19:24:28.181Z,15.57
2022-09-11T19:26:56.709Z,14.93
2022-09-11T19:29:24.866Z,15.90
2022-09-11T19:31:54.727Z,15.73
2022-09-11T19:34:24.551Z,16.95
2022-09-11T19:36:54.225Z,17.92
2022-09-11T19:39:22.687Z,18.80
2022-09-11T19:41:51.771Z,18.55
2022-09-11T19:44:20.762Z,18.70
2022-09-11T19:46:50.040Z,18.40
2022-09-11T19:49:18.545Z,17.90
2022-09-11T19:51:46.725Z,18.67
2022-09-11T19:54:16.330Z,19.02
2022-09-11T19:56:45.384Z,17.40
2022-09-11T19:59:14.380Z,17.20
2022-09-11T20:01:43.094Z,17.90
2022-09-11T20:04:13.584Z,17.65
2022-09-11T20:06:41.812Z,17.50
2022-09-11T20:12:01.225Z,17.48
2022-09-11T20:14:30.428Z,15.48
2022-09-11T20:17:01.046Z,15.45
2022-09-11T20:19:29.692Z,15.65
2022-09-11T20:21:57.972Z,15.63
2022-09-11T20:24:26.520Z,14.93
2022-09-11T20:26:55.004Z,15.95
2022-09-11T20:29:24.767Z,15.10
2022-09-11T20:31:54.247Z,15.50
2022-09-11T20:34:27.831Z,14.18
2022-09-11T20:36:56.987Z,14.50
2022-09-11T20:39:25.181Z,14.82
2022-09-11T20:41:53.648Z,14.45
2022-09-11T20:44:21.834Z,13.52
2022-09-11T20:46:51.553Z,13.80
2022-09-11T20:49:19.798Z,13.63
2022-09-11T20:51:48.018Z,12.15
2022-09-11T20:54:16.498Z,11.68
2022-09-11T20:56:46.270Z,10.65
2022-09-11T20:59:14.784Z,11.20
2022-09-11T21:01:43.284Z,10.05
2022-09-11T21:04:13.073Z,10.85
2022-09-11T21:06:41.308Z,8.95
2022-09-11T21:09:11.956Z,8.65
2022-09-11T21:11:41.743Z,9.07
2022-09-11T21:14:10.778Z,8.93
2022-09-11T21:16:39.443Z,8.50
2022-09-11T21:19:08.545Z,9.07
2022-09-11T21:21:40.206Z,8.77
2022-09-11T21:24:12.097Z,8.48
2022-09-11T21:26:40.498Z,8.13
2022-09-11T21:29:10.333Z,7.45
2022-09-11T21:31:38.576Z,8.13
2022-09-11T21:34:06.908Z,8.43
2022-09-11T21:36:36.755Z,8.73
2022-09-11T21:39:07.091Z,8.60
2022-09-11T21:41:35.820Z,8.60
2022-09-11T21:44:07.151Z,8.43
2022-09-11T21:46:35.674Z,8.70
2022-09-11T21:49:04.139Z,8.57
2022-09-11T21:51:32.356Z,9.38
2022-09-11T21:54:01.935Z,8.95
2022-09-11T21:56:34.486Z,9.07
2022-09-11T21:59:02.954Z,9.25
2022-09-11T22:01:32.205Z,9.25
2022-09-11T22:04:01.266Z,8.60
2022-09-11T22:06:30.321Z,9.45
2022-09-11T22:08:58.665Z,8.55
2022-09-11T22:11:26.954Z,9.63
2022-09-11T22:13:56.784Z,9.63
2022-09-11T22:16:26.096Z,9.48
2022-09-11T22:18:56.024Z,10.05
2022-09-11T22:21:24.373Z,10.20
2022-09-11T22:23:52.576Z,9.73
2022-09-11T22:26:23.604Z,9.20
2022-09-11T22:28:52.077Z,10.38
2022-09-11T22:31:23.819Z,10.63
2022-09-11T22:33:52.441Z,11.10
2022-09-11T22:36:23.594Z,11.60
2022-09-11T22:38:51.983Z,11.82
2022-09-11T22:41:21.036Z,11.85
2022-09-11T22:43:50.142Z,12.35
2022-09-11T22:46:20.392Z,13.30
2022-09-11T22:48:52.355Z,13.65
2022-09-11T22:51:20.504Z,14.20
2022-09-11T22:53:48.924Z,14.75
2022-09-11T22:56:17.247Z,15.23
2022-09-11T22:58:45.583Z,15.70
2022-09-11T23:01:21.845Z,16.33
2022-09-11T23:03:52.481Z,17.92
2022-09-11T23:06:38.828Z,17.23
2022-09-11T23:09:07.993Z,15.82
2022-09-11T23:11:36.206Z,19.85
2022-09-11T23:14:04.397Z,20.70
2022-09-11T23:16:32.910Z,22.20
2022-09-11T23:19:04.876Z,18.50
2022-09-11T23:21:35.531Z,20.70
2022-09-11T23:24:06.092Z,19.65
2022-09-11T23:26:35.165Z,18.25
2022-09-11T23:29:03.357Z,18.48
2022-09-11T23:31:33.317Z,18.55
2022-09-11T23:34:04.969Z,18.20
2022-09-11T23:36:33.793Z,19.90
2022-09-11T23:39:02.841Z,19.30
2022-09-11T23:41:32.015Z,22.88
2022-09-11T23:44:00.758Z,22.77
2022-09-11T23:46:28.996Z,23.02
2022-09-11T23:48:57.366Z,24.05
2022-09-11T23:51:27.226Z,25.55
2022-09-11T23:53:55.452Z,24.33
2022-09-11T23:56:24.662Z,25.55
2022-09-11T23:58:52.832Z,23.48
